Waterloo, Ohio
Current Conditions -  °F | °C
As of 11:15 PM on Tuesday 21 Oct 2014 (Local Time) from KDWU Reporting Station
Broken Clouds Broken Clouds  
Wind Chill: 46°   Ceiling: 4200
Heat Index: 46°   Visibility: 10mi
Dew Point: 39°   Wind: 0mph
Humidity: 76%   Direction: NA
Pressure: 30.12"   Gusts: NA
Location:  38.7°N, 82.47°W
Report Text: KDWU 220315Z AUTO 00000KT 10SM BKN042 08/04 A3012 RMK AO1
Loading
Personal Weather Stations






























Interactive Weather Map New forecast layout! Learn more

10-Day Weather Forecast

Advertisements
Track Severe Weather on mobile